sensor_id;sensor_type;location;lat;lon;timestamp;P1;durP1;ratioP1;P2;durP2;ratioP2
23302;SDS011;11820;48.738;9.092;2023-11-21T00:02:15;2.97;;;1.00;;
23302;SDS011;11820;48.738;9.092;2023-11-21T00:04:40;3.53;;;1.17;;
23302;SDS011;11820;48.738;9.092;2023-11-21T00:07:06;4.90;;;1.40;;
23302;SDS011;11820;48.738;9.092;2023-11-21T00:09:31;5.00;;;1.57;;
23302;SDS011;11820;48.738;9.092;2023-11-21T00:11:57;2.67;;;1.20;;
23302;SDS011;11820;48.738;9.092;2023-11-21T00:14:24;3.73;;;1.23;;
23302;SDS011;11820;48.738;9.092;2023-11-21T00:16:49;2.63;;;1.00;;
23302;SDS011;11820;48.738;9.092;2023-11-21T00:19:15;4.00;;;1.50;;
23302;SDS011;11820;48.738;9.092;2023-11-21T00:21:41;4.10;;;1.40;;
23302;SDS011;11820;48.738;9.092;2023-11-21T00:24:09;5.57;;;1.63;;
23302;SDS011;11820;48.738;9.092;2023-11-21T00:26:34;6.97;;;1.93;;
23302;SDS011;11820;48.738;9.092;2023-11-21T00:29:02;3.43;;;1.53;;
23302;SDS011;11820;48.738;9.092;2023-11-21T00:31:27;4.87;;;2.33;;
23302;SDS011;11820;48.738;9.092;2023-11-21T00:33:52;4.20;;;1.80;;
23302;SDS011;11820;48.738;9.092;2023-11-21T00:36:19;6.53;;;2.10;;
23302;SDS011;11820;48.738;9.092;2023-11-21T00:38:44;6.70;;;2.13;;
23302;SDS011;11820;48.738;9.092;2023-11-21T00:41:09;5.30;;;1.50;;
23302;SDS011;11820;48.738;9.092;2023-11-21T00:43:34;4.63;;;2.20;;
23302;SDS011;11820;48.738;9.092;2023-11-21T00:46:03;8.47;;;2.50;;
23302;SDS011;11820;48.738;9.092;2023-11-21T00:48:29;4.67;;;2.00;;
23302;SDS011;11820;48.738;9.092;2023-11-21T00:50:54;6.67;;;2.53;;
23302;SDS011;11820;48.738;9.092;2023-11-21T00:53:21;7.30;;;1.70;;
23302;SDS011;11820;48.738;9.092;2023-11-21T00:55:46;4.93;;;2.20;;
23302;SDS011;11820;48.738;9.092;2023-11-21T00:58:11;4.27;;;1.57;;
23302;SDS011;11820;48.738;9.092;2023-11-21T01:00:37;4.40;;;1.77;;
23302;SDS011;11820;48.738;9.092;2023-11-21T01:03:04;4.87;;;1.70;;
23302;SDS011;11820;48.738;9.092;2023-11-21T01:05:29;5.80;;;1.40;;
23302;SDS011;11820;48.738;9.092;2023-11-21T01:07:55;5.47;;;2.00;;
23302;SDS011;11820;48.738;9.092;2023-11-21T01:10:20;2.93;;;2.00;;
23302;SDS011;11820;48.738;9.092;2023-11-21T01:12:46;3.20;;;1.67;;
23302;SDS011;11820;48.738;9.092;2023-11-21T01:15:11;5.03;;;1.23;;
23302;SDS011;11820;48.738;9.092;2023-11-21T01:17:39;2.00;;;1.03;;
23302;SDS011;11820;48.738;9.092;2023-11-21T01:20:05;8.17;;;1.40;;
23302;SDS011;11820;48.738;9.092;2023-11-21T01:22:37;4.87;;;1.67;;
23302;SDS011;11820;48.738;9.092;2023-11-21T01:25:03;3.90;;;1.50;;
23302;SDS011;11820;48.738;9.092;2023-11-21T01:27:35;5.47;;;1.53;;
23302;SDS011;11820;48.738;9.092;2023-11-21T01:30:02;3.77;;;1.30;;
23302;SDS011;11820;48.738;9.092;2023-11-21T01:32:28;2.23;;;1.20;;
23302;SDS011;11820;48.738;9.092;2023-11-21T01:34:53;2.80;;;1.20;;
23302;SDS011;11820;48.738;9.092;2023-11-21T01:37:20;2.37;;;1.17;;
23302;SDS011;11820;48.738;9.092;2023-11-21T01:39:46;4.77;;;1.10;;
23302;SDS011;11820;48.738;9.092;2023-11-21T01:42:12;2.40;;;1.30;;
23302;SDS011;11820;48.738;9.092;2023-11-21T01:44:38;4.53;;;1.33;;
23302;SDS011;11820;48.738;9.092;2023-11-21T01:47:03;2.83;;;1.67;;
23302;SDS011;11820;48.738;9.092;2023-11-21T01:49:32;3.73;;;1.30;;
23302;SDS011;11820;48.738;9.092;2023-11-21T01:51:58;3.57;;;1.47;;
23302;SDS011;11820;48.738;9.092;2023-11-21T01:54:24;5.47;;;1.10;;
23302;SDS011;11820;48.738;9.092;2023-11-21T01:56:50;5.23;;;1.53;;
23302;SDS011;11820;48.738;9.092;2023-11-21T01:59:18;6.30;;;1.40;;
23302;SDS011;11820;48.738;9.092;2023-11-21T02:01:48;4.00;;;1.00;;
23302;SDS011;11820;48.738;9.092;2023-11-21T02:04:15;2.73;;;1.60;;
23302;SDS011;11820;48.738;9.092;2023-11-21T02:06:40;3.33;;;1.30;;
23302;SDS011;11820;48.738;9.092;2023-11-21T02:09:06;3.53;;;1.47;;
23302;SDS011;11820;48.738;9.092;2023-11-21T02:11:31;7.33;;;1.60;;
23302;SDS011;11820;48.738;9.092;2023-11-21T02:13:59;1.60;;;0.93;;
23302;SDS011;11820;48.738;9.092;2023-11-21T02:16:25;4.77;;;1.30;;
23302;SDS011;11820;48.738;9.092;2023-11-21T02:18:52;2.20;;;0.93;;
23302;SDS011;11820;48.738;9.092;2023-11-21T02:21:18;2.43;;;1.30;;
23302;SDS011;11820;48.738;9.092;2023-11-21T02:23:44;2.00;;;1.00;;
23302;SDS011;11820;48.738;9.092;2023-11-21T02:26:11;3.17;;;1.07;;
23302;SDS011;11820;48.738;9.092;2023-11-21T02:28:37;4.60;;;1.27;;
23302;SDS011;11820;48.738;9.092;2023-11-21T02:31:03;6.43;;;1.60;;
23302;SDS011;11820;48.738;9.092;2023-11-21T02:33:29;1.97;;;1.03;;
23302;SDS011;11820;48.738;9.092;2023-11-21T02:35:58;2.10;;;1.20;;
23302;SDS011;11820;48.738;9.092;2023-11-21T02:38:24;2.60;;;1.07;;
23302;SDS011;11820;48.738;9.092;2023-11-21T02:40:49;3.10;;;0.70;;
23302;SDS011;11820;48.738;9.092;2023-11-21T02:43:15;2.73;;;1.17;;
23302;SDS011;11820;48.738;9.092;2023-11-21T02:45:40;4.33;;;0.90;;
23302;SDS011;11820;48.738;9.092;2023-11-21T02:48:06;5.77;;;1.60;;
23302;SDS011;11820;48.738;9.092;2023-11-21T02:50:32;1.57;;;0.90;;
23302;SDS011;11820;48.738;9.092;2023-11-21T02:52:57;2.90;;;0.93;;
23302;SDS011;11820;48.738;9.092;2023-11-21T02:55:25;1.33;;;0.80;;
23302;SDS011;11820;48.738;9.092;2023-11-21T02:57:51;2.63;;;1.10;;
23302;SDS011;11820;48.738;9.092;2023-11-21T03:00:16;2.07;;;0.90;;
23302;SDS011;11820;48.738;9.092;2023-11-21T03:02:42;2.30;;;0.80;;
23302;SDS011;11820;48.738;9.092;2023-11-21T03:05:08;2.73;;;0.83;;
23302;SDS011;11820;48.738;9.092;2023-11-21T03:07:34;2.70;;;1.10;;
23302;SDS011;11820;48.738;9.092;2023-11-21T03:10:00;3.07;;;1.27;;
23302;SDS011;11820;48.738;9.092;2023-11-21T03:12:25;1.63;;;0.90;;
23302;SDS011;11820;48.738;9.092;2023-11-21T03:14:51;2.27;;;1.00;;
23302;SDS011;11820;48.738;9.092;2023-11-21T03:17:16;3.80;;;0.90;;
23302;SDS011;11820;48.738;9.092;2023-11-21T03:19:41;4.70;;;1.10;;
23302;SDS011;11820;48.738;9.092;2023-11-21T03:22:07;3.40;;;1.00;;
23302;SDS011;11820;48.738;9.092;2023-11-21T03:24:33;2.47;;;1.00;;
23302;SDS011;11820;48.738;9.092;2023-11-21T03:26:59;5.23;;;1.10;;
23302;SDS011;11820;48.738;9.092;2023-11-21T03:29:25;1.57;;;0.80;;
23302;SDS011;11820;48.738;9.092;2023-11-21T03:31:50;4.27;;;1.00;;
23302;SDS011;11820;48.738;9.092;2023-11-21T03:34:24;3.47;;;1.10;;
23302;SDS011;11820;48.738;9.092;2023-11-21T03:36:53;1.17;;;0.67;;
23302;SDS011;11820;48.738;9.092;2023-11-21T03:39:21;3.13;;;1.10;;
23302;SDS011;11820;48.738;9.092;2023-11-21T03:41:47;1.70;;;0.93;;
23302;SDS011;11820;48.738;9.092;2023-11-21T03:44:13;2.13;;;0.93;;
23302;SDS011;11820;48.738;9.092;2023-11-21T03:46:39;1.47;;;0.77;;
23302;SDS011;11820;48.738;9.092;2023-11-21T03:49:04;2.23;;;0.80;;
23302;SDS011;11820;48.738;9.092;2023-11-21T03:51:29;3.03;;;0.90;;
23302;SDS011;11820;48.738;9.092;2023-11-21T03:53:55;1.30;;;0.70;;
23302;SDS011;11820;48.738;9.092;2023-11-21T03:56:20;1.20;;;0.70;;
23302;SDS011;11820;48.738;9.092;2023-11-21T03:58:47;1.47;;;0.73;;
23302;SDS011;11820;48.738;9.092;2023-11-21T04:01:18;1.50;;;0.70;;
23302;SDS011;11820;48.738;9.092;2023-11-21T04:03:46;1.93;;;0.97;;
23302;SDS011;11820;48.738;9.092;2023-11-21T04:06:12;4.87;;;1.00;;
23302;SDS011;11820;48.738;9.092;2023-11-21T04:08:37;0.80;;;0.50;;
23302;SDS011;11820;48.738;9.092;2023-11-21T04:11:03;1.93;;;0.60;;
23302;SDS011;11820;48.738;9.092;2023-11-21T04:13:29;0.83;;;0.60;;
23302;SDS011;11820;48.738;9.092;2023-11-21T04:15:55;3.27;;;1.03;;
23302;SDS011;11820;48.738;9.092;2023-11-21T04:18:20;1.43;;;0.50;;
23302;SDS011;11820;48.738;9.092;2023-11-21T04:20:46;1.73;;;0.50;;
23302;SDS011;11820;48.738;9.092;2023-11-21T04:23:11;1.13;;;0.60;;
23302;SDS011;11820;48.738;9.092;2023-11-21T04:25:38;0.90;;;0.60;;
23302;SDS011;11820;48.738;9.092;2023-11-21T04:28:04;1.07;;;0.70;;
23302;SDS011;11820;48.738;9.092;2023-11-21T04:30:29;2.13;;;0.83;;
23302;SDS011;11820;48.738;9.092;2023-11-21T04:32:54;1.07;;;0.60;;
23302;SDS011;11820;48.738;9.092;2023-11-21T04:35:20;0.80;;;0.60;;
23302;SDS011;11820;48.738;9.092;2023-11-21T04:37:45;1.70;;;0.77;;
23302;SDS011;11820;48.738;9.092;2023-11-21T04:40:10;3.13;;;0.80;;
23302;SDS011;11820;48.738;9.092;2023-11-21T04:42:36;2.90;;;0.60;;
23302;SDS011;11820;48.738;9.092;2023-11-21T04:45:03;1.90;;;0.87;;
23302;SDS011;11820;48.738;9.092;2023-11-21T04:47:33;2.40;;;0.90;;
23302;SDS011;11820;48.738;9.092;2023-11-21T04:49:58;2.00;;;1.20;;
23302;SDS011;11820;48.738;9.092;2023-11-21T04:52:24;0.60;;;0.53;;
23302;SDS011;11820;48.738;9.092;2023-11-21T04:54:49;2.47;;;0.80;;
23302;SDS011;11820;48.738;9.092;2023-11-21T04:57:15;1.07;;;0.60;;
23302;SDS011;11820;48.738;9.092;2023-11-21T04:59:43;1.80;;;0.70;;
23302;SDS011;11820;48.738;9.092;2023-11-21T05:02:08;2.03;;;0.87;;
23302;SDS011;11820;48.738;9.092;2023-11-21T05:04:33;0.77;;;0.50;;
23302;SDS011;11820;48.738;9.092;2023-11-21T05:06:59;3.17;;;1.17;;
23302;SDS011;11820;48.738;9.092;2023-11-21T05:09:25;1.33;;;0.70;;
23302;SDS011;11820;48.738;9.092;2023-11-21T05:11:50;1.03;;;0.50;;
23302;SDS011;11820;48.738;9.092;2023-11-21T05:14:16;2.37;;;0.80;;
23302;SDS011;11820;48.738;9.092;2023-11-21T05:16:41;5.10;;;0.87;;
23302;SDS011;11820;48.738;9.092;2023-11-21T05:19:07;1.23;;;0.73;;
23302;SDS011;11820;48.738;9.092;2023-11-21T05:21:34;2.57;;;0.80;;
23302;SDS011;11820;48.738;9.092;2023-11-21T05:24:01;2.10;;;1.03;;
23302;SDS011;11820;48.738;9.092;2023-11-21T05:26:26;1.47;;;0.90;;
23302;SDS011;11820;48.738;9.092;2023-11-21T05:28:51;1.33;;;0.90;;
23302;SDS011;11820;48.738;9.092;2023-11-21T05:31:17;2.50;;;0.90;;
23302;SDS011;11820;48.738;9.092;2023-11-21T05:33:42;1.17;;;0.80;;
23302;SDS011;11820;48.738;9.092;2023-11-21T05:36:07;1.70;;;0.93;;
23302;SDS011;11820;48.738;9.092;2023-11-21T05:38:35;1.10;;;0.90;;
23302;SDS011;11820;48.738;9.092;2023-11-21T05:41:01;0.80;;;0.80;;
23302;SDS011;11820;48.738;9.092;2023-11-21T05:43:26;1.53;;;0.90;;
23302;SDS011;11820;48.738;9.092;2023-11-21T05:45:54;1.63;;;0.87;;
23302;SDS011;11820;48.738;9.092;2023-11-21T05:48:19;4.40;;;1.10;;
23302;SDS011;11820;48.738;9.092;2023-11-21T05:50:46;3.10;;;1.10;;
23302;SDS011;11820;48.738;9.092;2023-11-21T05:53:11;1.17;;;1.00;;
23302;SDS011;11820;48.738;9.092;2023-11-21T05:55:36;4.30;;;1.00;;
23302;SDS011;11820;48.738;9.092;2023-11-21T05:58:02;2.40;;;0.70;;
23302;SDS011;11820;48.738;9.092;2023-11-21T06:00:27;0.73;;;0.73;;
23302;SDS011;11820;48.738;9.092;2023-11-21T06:02:53;1.30;;;0.90;;
23302;SDS011;11820;48.738;9.092;2023-11-21T06:05:19;0.90;;;0.90;;
23302;SDS011;11820;48.738;9.092;2023-11-21T06:07:48;3.33;;;1.03;;
23302;SDS011;11820;48.738;9.092;2023-11-21T06:10:13;1.23;;;1.00;;
23302;SDS011;11820;48.738;9.092;2023-11-21T06:12:39;2.27;;;1.07;;
23302;SDS011;11820;48.738;9.092;2023-11-21T06:15:07;2.90;;;1.07;;
23302;SDS011;11820;48.738;9.092;2023-11-21T06:17:37;1.33;;;1.07;;
23302;SDS011;11820;48.738;9.092;2023-11-21T06:20:03;2.73;;;1.33;;
23302;SDS011;11820;48.738;9.092;2023-11-21T06:22:35;1.20;;;1.10;;
23302;SDS011;11820;48.738;9.092;2023-11-21T06:25:02;1.87;;;1.00;;
23302;SDS011;11820;48.738;9.092;2023-11-21T06:27:29;1.73;;;1.10;;
23302;SDS011;11820;48.738;9.092;2023-11-21T06:29:55;2.77;;;1.13;;
23302;SDS011;11820;48.738;9.092;2023-11-21T06:32:20;1.73;;;1.00;;
23302;SDS011;11820;48.738;9.092;2023-11-21T06:34:47;1.57;;;1.10;;
23302;SDS011;11820;48.738;9.092;2023-11-21T06:37:13;1.23;;;1.13;;
23302;SDS011;11820;48.738;9.092;2023-11-21T06:39:38;1.40;;;1.30;;
23302;SDS011;11820;48.738;9.092;2023-11-21T06:42:03;2.33;;;1.10;;
23302;SDS011;11820;48.738;9.092;2023-11-21T06:44:29;1.90;;;1.20;;
23302;SDS011;11820;48.738;9.092;2023-11-21T06:46:54;3.07;;;1.20;;
23302;SDS011;11820;48.738;9.092;2023-11-21T06:49:20;3.20;;;1.40;;
23302;SDS011;11820;48.738;9.092;2023-11-21T06:51:45;2.37;;;1.10;;
23302;SDS011;11820;48.738;9.092;2023-11-21T06:54:10;3.63;;;0.97;;
23302;SDS011;11820;48.738;9.092;2023-11-21T06:56:35;2.13;;;1.20;;
23302;SDS011;11820;48.738;9.092;2023-11-21T06:59:01;1.40;;;1.27;;
23302;SDS011;11820;48.738;9.092;2023-11-21T07:01:26;3.30;;;1.23;;
23302;SDS011;11820;48.738;9.092;2023-11-21T07:03:51;1.57;;;1.30;;
23302;SDS011;11820;48.738;9.092;2023-11-21T07:06:17;1.73;;;1.13;;
23302;SDS011;11820;48.738;9.092;2023-11-21T07:08:42;1.47;;;1.20;;
23302;SDS011;11820;48.738;9.092;2023-11-21T07:11:07;2.10;;;1.37;;
23302;SDS011;11820;48.738;9.092;2023-11-21T07:13:33;1.50;;;1.10;;
23302;SDS011;11820;48.738;9.092;2023-11-21T07:15:59;1.10;;;1.00;;
23302;SDS011;11820;48.738;9.092;2023-11-21T07:18:24;4.03;;;1.00;;
23302;SDS011;11820;48.738;9.092;2023-11-21T07:20:49;1.40;;;0.90;;
23302;SDS011;11820;48.738;9.092;2023-11-21T07:23:15;1.20;;;1.10;;
23302;SDS011;11820;48.738;9.092;2023-11-21T07:25:40;1.27;;;0.93;;
23302;SDS011;11820;48.738;9.092;2023-11-21T07:28:06;2.77;;;1.20;;
23302;SDS011;11820;48.738;9.092;2023-11-21T07:30:32;1.10;;;1.00;;
23302;SDS011;11820;48.738;9.092;2023-11-21T07:32:57;1.30;;;1.17;;
23302;SDS011;11820;48.738;9.092;2023-11-21T07:35:23;2.07;;;1.17;;
23302;SDS011;11820;48.738;9.092;2023-11-21T07:37:49;2.40;;;1.30;;
23302;SDS011;11820;48.738;9.092;2023-11-21T07:40:14;1.70;;;1.30;;
23302;SDS011;11820;48.738;9.092;2023-11-21T07:42:41;3.73;;;1.27;;
23302;SDS011;11820;48.738;9.092;2023-11-21T07:45:07;2.63;;;1.20;;
23302;SDS011;11820;48.738;9.092;2023-11-21T07:47:33;2.93;;;1.60;;
23302;SDS011;11820;48.738;9.092;2023-11-21T07:49:59;1.67;;;1.10;;
23302;SDS011;11820;48.738;9.092;2023-11-21T07:52:25;6.87;;;1.40;;
23302;SDS011;11820;48.738;9.092;2023-11-21T07:54:50;1.80;;;1.10;;
23302;SDS011;11820;48.738;9.092;2023-11-21T07:57:15;2.30;;;1.43;;
23302;SDS011;11820;48.738;9.092;2023-11-21T07:59:42;1.40;;;1.30;;
23302;SDS011;11820;48.738;9.092;2023-11-21T08:02:07;2.77;;;1.30;;
23302;SDS011;11820;48.738;9.092;2023-11-21T08:04:32;1.83;;;1.37;;
23302;SDS011;11820;48.738;9.092;2023-11-21T08:06:59;1.97;;;1.20;;
23302;SDS011;11820;48.738;9.092;2023-11-21T08:09:24;2.90;;;1.60;;
23302;SDS011;11820;48.738;9.092;2023-11-21T08:11:50;3.77;;;1.30;;
23302;SDS011;11820;48.738;9.092;2023-11-21T08:14:16;2.03;;;1.23;;
23302;SDS011;11820;48.738;9.092;2023-11-21T08:16:42;3.47;;;1.20;;
23302;SDS011;11820;48.738;9.092;2023-11-21T08:19:07;2.43;;;1.33;;
23302;SDS011;11820;48.738;9.092;2023-11-21T08:21:34;2.43;;;1.37;;
23302;SDS011;11820;48.738;9.092;2023-11-21T08:23:59;1.47;;;1.37;;
23302;SDS011;11820;48.738;9.092;2023-11-21T08:26:25;3.07;;;1.50;;
23302;SDS011;11820;48.738;9.092;2023-11-21T08:28:50;2.20;;;1.33;;
23302;SDS011;11820;48.738;9.092;2023-11-21T08:31:22;2.93;;;1.77;;
23302;SDS011;11820;48.738;9.092;2023-11-21T08:33:49;2.63;;;1.60;;
23302;SDS011;11820;48.738;9.092;2023-11-21T08:36:14;2.57;;;1.60;;
23302;SDS011;11820;48.738;9.092;2023-11-21T08:38:40;1.20;;;1.10;;
23302;SDS011;11820;48.738;9.092;2023-11-21T08:41:06;2.47;;;1.17;;
23302;SDS011;11820;48.738;9.092;2023-11-21T08:43:34;1.77;;;1.67;;
23302;SDS011;11820;48.738;9.092;2023-11-21T08:46:06;1.80;;;1.27;;
23302;SDS011;11820;48.738;9.092;2023-11-21T08:48:33;4.60;;;1.60;;
23302;SDS011;11820;48.738;9.092;2023-11-21T08:51:00;2.87;;;1.53;;
23302;SDS011;11820;48.738;9.092;2023-11-21T08:53:26;2.43;;;1.30;;
23302;SDS011;11820;48.738;9.092;2023-11-21T08:55:51;3.90;;;1.83;;
23302;SDS011;11820;48.738;9.092;2023-11-21T08:58:18;1.87;;;1.27;;
23302;SDS011;11820;48.738;9.092;2023-11-21T09:00:44;1.20;;;1.10;;
23302;SDS011;11820;48.738;9.092;2023-11-21T09:03:11;1.53;;;1.40;;
23302;SDS011;11820;48.738;9.092;2023-11-21T09:05:40;1.80;;;1.37;;
23302;SDS011;11820;48.738;9.092;2023-11-21T09:08:05;1.70;;;1.00;;
23302;SDS011;11820;48.738;9.092;2023-11-21T09:10:32;2.97;;;1.20;;
23302;SDS011;11820;48.738;9.092;2023-11-21T09:13:00;2.00;;;1.53;;
23302;SDS011;11820;48.738;9.092;2023-11-21T09:15:26;4.23;;;1.30;;
23302;SDS011;11820;48.738;9.092;2023-11-21T09:17:52;2.47;;;1.17;;
23302;SDS011;11820;48.738;9.092;2023-11-21T09:20:18;2.73;;;1.57;;
23302;SDS011;11820;48.738;9.092;2023-11-21T09:22:43;4.43;;;1.30;;
23302;SDS011;11820;48.738;9.092;2023-11-21T09:25:09;2.33;;;1.40;;
23302;SDS011;11820;48.738;9.092;2023-11-21T09:27:35;2.83;;;1.13;;
23302;SDS011;11820;48.738;9.092;2023-11-21T09:30:03;1.17;;;1.00;;
23302;SDS011;11820;48.738;9.092;2023-11-21T09:32:30;1.03;;;0.90;;
23302;SDS011;11820;48.738;9.092;2023-11-21T09:34:55;4.23;;;1.30;;
23302;SDS011;11820;48.738;9.092;2023-11-21T09:37:23;1.33;;;1.10;;
23302;SDS011;11820;48.738;9.092;2023-11-21T09:39:49;2.57;;;1.23;;
23302;SDS011;11820;48.738;9.092;2023-11-21T09:45:21;2.73;;;1.10;;
23302;SDS011;11820;48.738;9.092;2023-11-21T09:47:51;3.13;;;1.20;;
23302;SDS011;11820;48.738;9.092;2023-11-21T09:50:17;3.87;;;1.33;;
23302;SDS011;11820;48.738;9.092;2023-11-21T09:55:22;2.40;;;1.20;;
23302;SDS011;11820;48.738;9.092;2023-11-21T09:57:50;1.97;;;1.27;;
23302;SDS011;11820;48.738;9.092;2023-11-21T10:00:17;4.93;;;1.10;;
23302;SDS011;11820;48.738;9.092;2023-11-21T10:02:45;1.20;;;1.10;;
23302;SDS011;11820;48.738;9.092;2023-11-21T10:05:12;1.60;;;1.20;;
23302;SDS011;11820;48.738;9.092;2023-11-21T10:07:39;3.27;;;1.50;;
23302;SDS011;11820;48.738;9.092;2023-11-21T10:10:06;4.50;;;1.60;;
23302;SDS011;11820;48.738;9.092;2023-11-21T10:12:33;2.33;;;1.00;;
23302;SDS011;11820;48.738;9.092;2023-11-21T10:14:59;1.43;;;0.83;;
23302;SDS011;11820;48.738;9.092;2023-11-21T10:17:27;2.77;;;0.90;;
23302;SDS011;11820;48.738;9.092;2023-11-21T10:19:56;1.30;;;1.10;;
23302;SDS011;11820;48.738;9.092;2023-11-21T10:22:22;1.47;;;1.20;;
23302;SDS011;11820;48.738;9.092;2023-11-21T10:24:48;2.13;;;1.30;;
23302;SDS011;11820;48.738;9.092;2023-11-21T10:27:14;2.10;;;1.17;;
23302;SDS011;11820;48.738;9.092;2023-11-21T10:29:39;3.30;;;1.30;;
23302;SDS011;11820;48.738;9.092;2023-11-21T10:32:05;2.23;;;1.53;;
23302;SDS011;11820;48.738;9.092;2023-11-21T10:34:30;3.23;;;1.63;;
23302;SDS011;11820;48.738;9.092;2023-11-21T10:36:56;3.13;;;2.50;;
23302;SDS011;11820;48.738;9.092;2023-11-21T10:39:23;3.03;;;2.70;;
23302;SDS011;11820;48.738;9.092;2023-11-21T10:41:53;1.87;;;1.60;;
23302;SDS011;11820;48.738;9.092;2023-11-21T10:44:20;3.13;;;1.70;;
23302;SDS011;11820;48.738;9.092;2023-11-21T10:46:50;4.33;;;1.70;;
23302;SDS011;11820;48.738;9.092;2023-11-21T10:49:22;5.20;;;2.87;;
23302;SDS011;11820;48.738;9.092;2023-11-21T10:51:50;2.07;;;1.00;;
23302;SDS011;11820;48.738;9.092;2023-11-21T10:54:20;2.37;;;0.70;;
23302;SDS011;11820;48.738;9.092;2023-11-21T10:56:50;1.20;;;0.67;;
23302;SDS011;11820;48.738;9.092;2023-11-21T10:59:18;1.60;;;0.83;;
23302;SDS011;11820;48.738;9.092;2023-11-21T11:01:45;0.90;;;0.50;;
23302;SDS011;11820;48.738;9.092;2023-11-21T11:04:11;0.83;;;0.70;;
23302;SDS011;11820;48.738;9.092;2023-11-21T11:06:44;0.70;;;0.70;;
23302;SDS011;11820;48.738;9.092;2023-11-21T11:09:15;1.60;;;0.70;;
23302;SDS011;11820;48.738;9.092;2023-11-21T11:11:42;0.70;;;0.67;;
23302;SDS011;11820;48.738;9.092;2023-11-21T11:14:10;3.70;;;0.80;;
23302;SDS011;11820;48.738;9.092;2023-11-21T11:16:37;0.60;;;0.60;;
23302;SDS011;11820;48.738;9.092;2023-11-21T11:19:06;1.20;;;0.80;;
23302;SDS011;11820;48.738;9.092;2023-11-21T11:21:53;1.90;;;0.60;;
23302;SDS011;11820;48.738;9.092;2023-11-21T11:38:18;2.00;;;1.67;;
23302;SDS011;11820;48.738;9.092;2023-11-21T11:40:46;1.77;;;1.30;;
23302;SDS011;11820;48.738;9.092;2023-11-21T11:43:12;1.63;;;1.00;;
23302;SDS011;11820;48.738;9.092;2023-11-21T11:45:37;1.03;;;1.00;;
23302;SDS011;11820;48.738;9.092;2023-11-21T11:48:11;1.40;;;1.10;;
23302;SDS011;11820;48.738;9.092;2023-11-21T11:50:41;1.00;;;0.90;;
23302;SDS011;11820;48.738;9.092;2023-11-21T11:53:13;3.80;;;1.20;;
23302;SDS011;11820;48.738;9.092;2023-11-21T11:55:40;1.77;;;1.17;;
23302;SDS011;11820;48.738;9.092;2023-11-21T11:58:06;1.33;;;1.20;;
23302;SDS011;11820;48.738;9.092;2023-11-21T12:02:58;1.20;;;1.10;;
23302;SDS011;11820;48.738;9.092;2023-11-21T12:05:28;2.10;;;1.00;;
23302;SDS011;11820;48.738;9.092;2023-11-21T12:07:56;1.07;;;0.97;;
23302;SDS011;11820;48.738;9.092;2023-11-21T12:13:02;2.03;;;1.20;;
23302;SDS011;11820;48.738;9.092;2023-11-21T12:15:32;0.90;;;0.90;;
23302;SDS011;11820;48.738;9.092;2023-11-21T12:18:00;1.60;;;1.13;;
23302;SDS011;11820;48.738;9.092;2023-11-21T12:20:26;1.63;;;0.90;;
23302;SDS011;11820;48.738;9.092;2023-11-21T12:22:56;1.17;;;1.07;;
23302;SDS011;11820;48.738;9.092;2023-11-21T12:25:28;0.90;;;0.90;;
23302;SDS011;11820;48.738;9.092;2023-11-21T12:27:56;1.53;;;0.97;;
23302;SDS011;11820;48.738;9.092;2023-11-21T12:30:23;0.77;;;0.77;;
23302;SDS011;11820;48.738;9.092;2023-11-21T12:32:50;0.87;;;0.80;;
23302;SDS011;11820;48.738;9.092;2023-11-21T12:35:17;1.60;;;0.70;;
23302;SDS011;11820;48.738;9.092;2023-11-21T12:37:47;1.10;;;1.00;;
23302;SDS011;11820;48.738;9.092;2023-11-21T12:40:13;1.60;;;1.07;;
23302;SDS011;11820;48.738;9.092;2023-11-21T12:42:42;1.00;;;0.90;;
23302;SDS011;11820;48.738;9.092;2023-11-21T12:45:09;0.63;;;0.63;;
23302;SDS011;11820;48.738;9.092;2023-11-21T12:47:41;1.27;;;1.07;;
23302;SDS011;11820;48.738;9.092;2023-11-21T12:50:08;1.67;;;1.30;;
23302;SDS011;11820;48.738;9.092;2023-11-21T12:52:39;1.37;;;1.20;;
23302;SDS011;11820;48.738;9.092;2023-11-21T12:55:16;1.60;;;1.40;;
23302;SDS011;11820;48.738;9.092;2023-11-21T12:57:45;1.07;;;0.90;;
23302;SDS011;11820;48.738;9.092;2023-11-21T13:00:16;1.37;;;1.10;;
23302;SDS011;11820;48.738;9.092;2023-11-21T13:02:55;1.50;;;1.03;;
23302;SDS011;11820;48.738;9.092;2023-11-21T13:05:25;1.70;;;1.33;;
23302;SDS011;11820;48.738;9.092;2023-11-21T13:07:59;2.93;;;1.50;;
23302;SDS011;11820;48.738;9.092;2023-11-21T13:10:28;1.27;;;1.17;;
23302;SDS011;11820;48.738;9.092;2023-11-21T13:12:58;2.00;;;1.80;;
23302;SDS011;11820;48.738;9.092;2023-11-21T13:15:25;1.50;;;1.40;;
23302;SDS011;11820;48.738;9.092;2023-11-21T13:17:52;1.50;;;1.40;;
23302;SDS011;11820;48.738;9.092;2023-11-21T13:20:18;1.50;;;1.40;;
23302;SDS011;11820;48.738;9.092;2023-11-21T13:23:07;2.03;;;1.83;;
23302;SDS011;11820;48.738;9.092;2023-11-21T13:25:36;3.23;;;2.10;;
23302;SDS011;11820;48.738;9.092;2023-11-21T13:28:02;2.03;;;1.93;;
23302;SDS011;11820;48.738;9.092;2023-11-21T13:30:28;1.17;;;1.07;;
23302;SDS011;11820;48.738;9.092;2023-11-21T13:33:01;0.87;;;0.80;;
23302;SDS011;11820;48.738;9.092;2023-11-21T13:35:31;0.83;;;0.83;;
23302;SDS011;11820;48.738;9.092;2023-11-21T13:38:06;0.70;;;0.70;;
23302;SDS011;11820;48.738;9.092;2023-11-21T13:40:33;0.70;;;0.70;;
23302;SDS011;11820;48.738;9.092;2023-11-21T13:43:05;0.87;;;0.87;;
23302;SDS011;11820;48.738;9.092;2023-11-21T13:45:34;1.50;;;0.60;;
23302;SDS011;11820;48.738;9.092;2023-11-21T13:48:00;2.00;;;0.60;;
23302;SDS011;11820;48.738;9.092;2023-11-21T13:50:25;1.13;;;0.80;;
23302;SDS011;11820;48.738;9.092;2023-11-21T13:52:58;0.50;;;0.50;;
23302;SDS011;11820;48.738;9.092;2023-11-21T13:55:28;0.60;;;0.60;;
23302;SDS011;11820;48.738;9.092;2023-11-21T13:57:53;4.23;;;2.37;;
23302;SDS011;11820;48.738;9.092;2023-11-21T14:00:19;3.40;;;2.40;;
23302;SDS011;11820;48.738;9.092;2023-11-21T14:03:02;3.17;;;1.50;;
23302;SDS011;11820;48.738;9.092;2023-11-21T14:05:33;1.10;;;1.00;;
23302;SDS011;11820;48.738;9.092;2023-11-21T14:07:59;0.97;;;0.80;;
23302;SDS011;11820;48.738;9.092;2023-11-21T14:10:29;1.27;;;1.17;;
23302;SDS011;11820;48.738;9.092;2023-11-21T14:13:05;2.00;;;1.10;;
23302;SDS011;11820;48.738;9.092;2023-11-21T14:15:31;2.50;;;1.10;;
23302;SDS011;11820;48.738;9.092;2023-11-21T14:17:58;1.80;;;1.70;;
23302;SDS011;11820;48.738;9.092;2023-11-21T14:20:24;2.30;;;2.10;;
23302;SDS011;11820;48.738;9.092;2023-11-21T14:22:50;2.30;;;1.70;;
23302;SDS011;11820;48.738;9.092;2023-11-21T14:25:15;2.80;;;2.53;;
23302;SDS011;11820;48.738;9.092;2023-11-21T14:27:42;3.83;;;2.90;;
23302;SDS011;11820;48.738;9.092;2023-11-21T14:30:08;2.60;;;2.40;;
23302;SDS011;11820;48.738;9.092;2023-11-21T14:32:37;2.07;;;1.87;;
23302;SDS011;11820;48.738;9.092;2023-11-21T14:35:03;2.90;;;2.07;;
23302;SDS011;11820;48.738;9.092;2023-11-21T14:37:28;2.43;;;2.03;;
23302;SDS011;11820;48.738;9.092;2023-11-21T14:39:54;2.47;;;1.90;;
23302;SDS011;11820;48.738;9.092;2023-11-21T14:42:20;2.70;;;2.00;;
23302;SDS011;11820;48.738;9.092;2023-11-21T14:44:50;2.40;;;2.00;;
23302;SDS011;11820;48.738;9.092;2023-11-21T14:47:16;3.70;;;2.13;;
23302;SDS011;11820;48.738;9.092;2023-11-21T14:49:43;4.07;;;2.13;;
23302;SDS011;11820;48.738;9.092;2023-11-21T14:52:21;2.53;;;2.20;;
23302;SDS011;11820;48.738;9.092;2023-11-21T14:55:05;2.30;;;2.10;;
23302;SDS011;11820;48.738;9.092;2023-11-21T14:57:50;3.10;;;2.10;;
23302;SDS011;11820;48.738;9.092;2023-11-21T15:00:19;3.67;;;2.70;;
23302;SDS011;11820;48.738;9.092;2023-11-21T15:03:01;5.07;;;2.50;;
23302;SDS011;11820;48.738;9.092;2023-11-21T15:05:30;3.60;;;2.40;;
23302;SDS011;11820;48.738;9.092;2023-11-21T15:07:56;3.40;;;3.10;;
23302;SDS011;11820;48.738;9.092;2023-11-21T15:10:33;2.80;;;2.57;;
23302;SDS011;11820;48.738;9.092;2023-11-21T15:13:13;5.07;;;2.70;;